createdAt,value
2023-05-19T00:02:09.556Z,20.85
2023-05-19T00:04:37.238Z,20.76
2023-05-19T00:07:04.270Z,20.69
2023-05-19T00:09:31.477Z,20.70
2023-05-19T00:11:58.599Z,20.68
2023-05-19T00:14:25.672Z,20.64
2023-05-19T00:16:52.862Z,20.62
2023-05-19T00:19:19.688Z,20.55
2023-05-19T00:21:46.566Z,20.55
2023-05-19T00:24:13.409Z,20.50
2023-05-19T00:26:40.287Z,20.48
2023-05-19T00:29:07.176Z,20.50
2023-05-19T00:31:34.277Z,20.45
2023-05-19T00:34:01.676Z,20.48
2023-05-19T00:36:28.634Z,20.47
2023-05-19T00:38:57.228Z,20.44
2023-05-19T00:41:25.159Z,20.48
2023-05-19T00:43:51.995Z,20.45
2023-05-19T00:46:19.573Z,20.57
2023-05-19T00:48:46.838Z,20.49
2023-05-19T00:51:16.924Z,20.41
2023-05-19T00:53:48.614Z,20.30
2023-05-19T00:56:16.691Z,20.29
2023-05-19T00:58:44.090Z,20.28
2023-05-19T01:01:17.466Z,20.24
2023-05-19T01:03:44.613Z,20.25
2023-05-19T01:06:12.415Z,20.12
2023-05-19T01:08:39.432Z,20.19
2023-05-19T01:11:06.972Z,20.09
2023-05-19T01:13:34.823Z,20.05
2023-05-19T01:16:03.451Z,20.02
2023-05-19T01:18:33.645Z,20.01
2023-05-19T01:21:27.437Z,19.98
2023-05-19T01:24:24.628Z,19.97
2023-05-19T01:27:10.268Z,19.99
2023-05-19T01:30:08.405Z,20.00
2023-05-19T01:32:35.322Z,19.92
2023-05-19T01:35:02.512Z,19.90
2023-05-19T01:37:31.508Z,19.95
2023-05-19T01:39:58.345Z,19.91
2023-05-19T01:42:25.103Z,19.97
2023-05-19T01:44:51.952Z,19.92
2023-05-19T01:47:19.410Z,19.83
2023-05-19T01:49:46.252Z,19.89
2023-05-19T01:52:13.031Z,20.07
2023-05-19T01:54:39.928Z,20.08
2023-05-19T01:57:15.325Z,20.26
2023-05-19T01:59:54.199Z,20.37
2023-05-19T02:02:34.640Z,20.29
2023-05-19T02:05:07.135Z,20.09
2023-05-19T02:07:44.344Z,20.18
2023-05-19T02:10:13.679Z,20.14
2023-05-19T02:12:40.789Z,20.01
2023-05-19T02:15:22.053Z,19.96
2023-05-19T02:17:52.115Z,19.93
2023-05-19T02:20:20.133Z,19.84
2023-05-19T02:22:47.075Z,19.63
2023-05-19T02:25:14.170Z,19.56
2023-05-19T02:27:41.330Z,19.63
2023-05-19T02:30:08.895Z,19.53
2023-05-19T02:32:36.893Z,19.47
2023-05-19T02:35:04.264Z,19.77
2023-05-19T02:37:31.245Z,19.83
2023-05-19T02:39:58.140Z,19.79
2023-05-19T02:42:24.972Z,19.79
2023-05-19T02:44:54.638Z,19.89
2023-05-19T02:47:22.205Z,19.95
2023-05-19T02:49:49.105Z,19.96
2023-05-19T02:52:15.982Z,19.85
2023-05-19T02:54:43.013Z,19.77
2023-05-19T02:57:11.286Z,19.72
2023-05-19T02:59:38.168Z,19.65
2023-05-19T03:02:05.107Z,19.68
2023-05-19T03:04:32.094Z,19.91
2023-05-19T03:06:58.918Z,19.97
2023-05-19T03:09:25.859Z,20.00
2023-05-19T03:11:53.158Z,20.06
2023-05-19T03:14:24.353Z,20.05
2023-05-19T03:16:51.447Z,20.09
2023-05-19T03:19:18.442Z,20.12
2023-05-19T03:21:45.629Z,19.99
2023-05-19T03:24:12.503Z,19.98
2023-05-19T03:26:39.359Z,20.02
2023-05-19T03:29:06.511Z,20.08
2023-05-19T03:31:34.253Z,20.10
2023-05-19T03:34:22.450Z,20.24
2023-05-19T03:36:50.498Z,20.31
2023-05-19T03:39:17.769Z,20.34
2023-05-19T03:41:45.513Z,20.27
2023-05-19T03:44:12.469Z,20.21
2023-05-19T03:46:39.289Z,20.39
2023-05-19T03:49:09.004Z,20.15
2023-05-19T03:51:55.993Z,20.10
2023-05-19T03:54:34.071Z,20.08
2023-05-19T03:57:02.299Z,20.28
2023-05-19T03:59:30.258Z,20.43
2023-05-19T04:01:58.130Z,20.31
2023-05-19T04:04:26.815Z,20.11
2023-05-19T04:06:53.647Z,19.98
2023-05-19T04:09:20.560Z,19.97
2023-05-19T04:11:47.372Z,20.24
2023-05-19T04:14:14.150Z,20.36
2023-05-19T04:16:41.771Z,20.19
2023-05-19T04:19:09.038Z,20.02
2023-05-19T04:21:36.933Z,20.05
2023-05-19T04:24:06.444Z,20.19
2023-05-19T04:26:34.587Z,20.14
2023-05-19T04:29:04.946Z,19.95
2023-05-19T04:31:34.484Z,20.03
2023-05-19T04:34:03.447Z,20.02
2023-05-19T04:36:31.435Z,20.04
2023-05-19T04:39:07.142Z,19.76
2023-05-19T04:41:34.823Z,19.86
2023-05-19T04:44:02.190Z,20.02
2023-05-19T04:46:30.225Z,19.81
2023-05-19T04:48:57.787Z,19.65
2023-05-19T04:51:30.307Z,19.78
2023-05-19T04:53:58.549Z,20.00
2023-05-19T04:56:27.573Z,19.84
2023-05-19T04:58:55.192Z,19.92
2023-05-19T05:01:26.389Z,19.97
2023-05-19T05:03:59.213Z,19.79
2023-05-19T05:06:26.656Z,19.95
2023-05-19T05:08:53.554Z,20.03
2023-05-19T05:11:20.819Z,19.98
2023-05-19T05:13:48.018Z,19.95
2023-05-19T05:16:15.952Z,20.05
2023-05-19T05:18:44.911Z,20.18
2023-05-19T05:21:12.660Z,20.05
2023-05-19T05:23:40.704Z,19.86
2023-05-19T05:26:11.047Z,20.01
2023-05-19T05:28:37.945Z,20.14
2023-05-19T05:31:05.910Z,20.13
2023-05-19T05:33:32.785Z,20.05
2023-05-19T05:35:59.720Z,20.01
2023-05-19T05:38:31.084Z,20.10
2023-05-19T05:40:57.882Z,20.06
2023-05-19T05:43:25.029Z,20.09
2023-05-19T05:45:57.299Z,20.15
2023-05-19T05:48:25.532Z,20.16
2023-05-19T05:50:52.771Z,20.16
2023-05-19T05:53:23.261Z,20.18
2023-05-19T05:55:53.714Z,19.97
2023-05-19T05:58:22.605Z,19.82
2023-05-19T06:00:51.539Z,19.90
2023-05-19T06:03:18.596Z,19.90
2023-05-19T06:05:45.860Z,19.93
2023-05-19T06:08:13.247Z,20.01
2023-05-19T06:10:45.128Z,20.01
2023-05-19T06:13:13.789Z,20.07
2023-05-19T06:15:42.206Z,20.12
2023-05-19T06:18:16.592Z,20.12
2023-05-19T06:20:44.512Z,20.06
2023-05-19T06:23:11.419Z,20.11
2023-05-19T06:25:38.258Z,20.21
2023-05-19T06:28:06.055Z,20.20
2023-05-19T06:30:33.271Z,20.31
2023-05-19T06:33:23.139Z,20.34
2023-05-19T06:35:51.239Z,20.13
2023-05-19T06:38:18.307Z,20.20
2023-05-19T06:40:45.622Z,20.35
2023-05-19T06:43:12.622Z,20.36
2023-05-19T06:46:13.198Z,20.42
2023-05-19T06:48:40.349Z,20.34
2023-05-19T06:51:07.650Z,20.18
2023-05-19T06:53:35.472Z,20.32
2023-05-19T06:56:06.537Z,20.56
2023-05-19T06:58:33.753Z,20.63
2023-05-19T07:01:02.321Z,20.64
2023-05-19T07:03:33.385Z,20.68
2023-05-19T07:06:00.408Z,20.62
2023-05-19T07:08:28.470Z,20.60
2023-05-19T07:10:56.218Z,20.69
2023-05-19T07:13:24.389Z,20.76
2023-05-19T07:15:55.921Z,20.88
2023-05-19T07:18:23.306Z,21.10
2023-05-19T07:20:53.898Z,21.30
2023-05-19T07:23:21.171Z,21.38
2023-05-19T07:25:48.168Z,21.33
2023-05-19T07:28:14.995Z,21.35
2023-05-19T07:30:41.932Z,21.45
2023-05-19T07:33:08.833Z,21.52
2023-05-19T07:35:35.714Z,21.45
2023-05-19T07:38:03.150Z,21.64
2023-05-19T07:40:30.004Z,21.67
2023-05-19T07:42:57.008Z,21.80
2023-05-19T07:45:24.909Z,21.99
2023-05-19T07:47:54.102Z,22.05
2023-05-19T07:50:21.029Z,22.23
2023-05-19T07:52:47.910Z,22.45
2023-05-19T07:55:16.401Z,22.48
2023-05-19T07:57:43.372Z,22.75
2023-05-19T08:00:12.650Z,22.77
2023-05-19T08:02:39.592Z,22.69
2023-05-19T08:05:07.624Z,22.51
2023-05-19T08:07:34.780Z,22.24
2023-05-19T08:10:03.453Z,22.19
2023-05-19T08:12:30.295Z,22.49
2023-05-19T08:14:58.919Z,22.96
2023-05-19T08:17:28.276Z,23.31
2023-05-19T08:19:55.206Z,23.41
2023-05-19T08:22:22.600Z,23.29
2023-05-19T08:24:52.209Z,23.35
2023-05-19T08:27:19.125Z,23.59
2023-05-19T08:29:45.989Z,23.94
2023-05-19T08:32:13.507Z,23.99
2023-05-19T08:34:41.462Z,23.72
2023-05-19T08:37:08.370Z,23.34
2023-05-19T08:39:35.328Z,23.30
2023-05-19T08:42:03.508Z,23.46
2023-05-19T08:44:31.785Z,23.52
2023-05-19T08:47:01.515Z,23.53
2023-05-19T08:49:28.559Z,23.77
2023-05-19T08:52:01.590Z,23.80
2023-05-19T08:55:37.455Z,23.50
2023-05-19T08:58:04.714Z,23.86
2023-05-19T09:00:33.241Z,24.02
2023-05-19T09:03:17.657Z,24.19
2023-05-19T09:05:49.680Z,23.56
2023-05-19T09:08:16.703Z,23.02
2023-05-19T09:10:43.563Z,23.06
2023-05-19T09:13:10.534Z,23.13
2023-05-19T09:15:37.455Z,23.08
2023-05-19T09:18:12.321Z,23.14
2023-05-19T09:20:46.405Z,23.25
2023-05-19T09:23:16.543Z,22.97
2023-05-19T09:25:52.338Z,23.08
2023-05-19T09:28:28.086Z,23.19
2023-05-19T09:31:05.583Z,23.47
2023-05-19T09:33:36.791Z,23.36
2023-05-19T09:36:14.069Z,23.06
2023-05-19T09:38:41.768Z,22.92
2023-05-19T09:41:09.533Z,23.12
2023-05-19T09:43:37.155Z,23.48
2023-05-19T09:46:06.953Z,23.79
2023-05-19T09:48:35.780Z,23.91
2023-05-19T09:51:08.057Z,24.23
2023-05-19T09:53:36.043Z,24.49
2023-05-19T09:56:04.440Z,24.73
2023-05-19T09:58:34.779Z,24.95
2023-05-19T10:01:01.745Z,25.12
2023-05-19T10:03:28.658Z,25.14
2023-05-19T10:05:55.520Z,24.91
2023-05-19T10:08:24.222Z,24.68
2023-05-19T10:10:51.066Z,24.70
2023-05-19T10:13:17.896Z,24.90
2023-05-19T10:15:57.104Z,24.95
2023-05-19T10:18:27.194Z,24.95
2023-05-19T10:20:54.078Z,24.92
2023-05-19T10:23:21.238Z,24.66
2023-05-19T10:25:49.435Z,24.29
2023-05-19T10:28:17.431Z,24.29
2023-05-19T10:30:49.619Z,24.39
2023-05-19T10:33:18.154Z,24.25
2023-05-19T10:36:11.135Z,23.46
2023-05-19T10:38:50.235Z,23.14
2023-05-19T10:41:47.155Z,23.58
2023-05-19T10:44:23.465Z,23.76
2023-05-19T10:46:51.182Z,23.55
2023-05-19T10:49:22.727Z,23.86
2023-05-19T10:51:50.285Z,23.99
2023-05-19T10:54:18.503Z,24.31
2023-05-19T10:56:48.592Z,24.41
2023-05-19T10:59:34.241Z,24.73
2023-05-19T11:02:08.423Z,24.71
2023-05-19T11:04:58.616Z,24.90
2023-05-19T11:07:25.637Z,25.10
2023-05-19T11:09:52.783Z,24.84
2023-05-19T11:12:24.627Z,24.56
2023-05-19T11:14:55.153Z,24.54
2023-05-19T11:17:23.808Z,24.57
2023-05-19T11:19:57.858Z,24.57
2023-05-19T11:22:28.013Z,24.59
2023-05-19T11:24:57.229Z,24.75
2023-05-19T11:27:29.164Z,24.94
2023-05-19T11:29:56.697Z,24.85
2023-05-19T11:32:34.960Z,24.63
2023-05-19T11:35:02.931Z,24.54
2023-05-19T11:37:32.187Z,24.43
2023-05-19T11:40:05.424Z,24.11
2023-05-19T11:42:32.317Z,24.01
2023-05-19T11:44:59.122Z,24.32
2023-05-19T11:47:25.940Z,24.21
2023-05-19T11:49:57.605Z,23.95
2023-05-19T11:52:25.015Z,24.07
2023-05-19T11:54:52.469Z,24.24
2023-05-19T11:57:19.480Z,24.50
2023-05-19T11:59:48.360Z,24.84
2023-05-19T12:02:22.728Z,24.60
2023-05-19T12:04:51.040Z,24.26
2023-05-19T12:07:23.635Z,24.42
2023-05-19T12:09:51.968Z,24.61
2023-05-19T12:12:20.259Z,24.51
2023-05-19T12:14:47.616Z,24.60
2023-05-19T12:17:17.989Z,24.59
2023-05-19T12:19:44.851Z,24.76
2023-05-19T12:22:12.869Z,24.87
2023-05-19T12:24:39.802Z,25.08
2023-05-19T12:27:07.939Z,25.61
2023-05-19T12:29:35.409Z,25.92
2023-05-19T12:32:03.569Z,25.81
2023-05-19T12:34:32.298Z,26.01
2023-05-19T12:36:59.232Z,25.80
2023-05-19T12:39:26.206Z,25.71
2023-05-19T12:41:53.104Z,25.69
2023-05-19T12:44:19.859Z,25.99
2023-05-19T12:46:47.718Z,25.98
2023-05-19T12:49:14.896Z,25.45
2023-05-19T12:51:41.819Z,25.06
2023-05-19T21:15:50.738Z,19.26
2023-05-19T21:18:18.759Z,19.33
2023-05-19T21:20:45.752Z,19.34
2023-05-19T21:23:12.625Z,19.31
2023-05-19T21:25:39.776Z,19.31
2023-05-19T21:28:07.695Z,19.24
2023-05-19T21:30:34.720Z,19.27
2023-05-19T21:33:02.074Z,19.26
2023-05-19T21:35:29.010Z,19.19
2023-05-19T21:37:58.241Z,19.20
2023-05-19T21:40:26.430Z,19.20
2023-05-19T21:42:53.335Z,19.11
2023-05-19T21:45:20.223Z,19.15
2023-05-19T21:47:48.320Z,19.14
2023-05-19T21:50:17.492Z,19.11
2023-05-19T21:52:44.497Z,19.17
2023-05-19T21:55:11.426Z,19.05
2023-05-19T21:57:38.295Z,18.97
2023-05-19T22:00:06.835Z,19.10
2023-05-19T22:02:40.297Z,19.05
2023-05-19T22:05:08.478Z,19.12
2023-05-19T22:07:35.405Z,19.04
2023-05-19T22:10:06.201Z,18.93
2023-05-19T22:12:33.172Z,19.01
2023-05-19T22:15:00.868Z,19.08
2023-05-19T22:17:27.890Z,19.02
2023-05-19T22:19:54.859Z,19.06
2023-05-19T22:22:21.750Z,19.08
2023-05-19T22:24:48.906Z,19.07
2023-05-19T22:27:15.942Z,19.16
2023-05-19T22:29:43.833Z,19.13
2023-05-19T22:32:12.428Z,19.19
2023-05-19T22:34:39.647Z,19.16
2023-05-19T22:37:06.507Z,19.15
2023-05-19T22:39:33.461Z,19.13
2023-05-19T22:42:00.274Z,19.13
2023-05-19T22:44:27.113Z,19.07
2023-05-19T22:46:54.106Z,18.92
2023-05-19T22:49:30.253Z,18.97
2023-05-19T22:51:57.182Z,18.98
2023-05-19T22:54:24.104Z,18.99
2023-05-19T22:56:51.096Z,19.00
2023-05-19T22:59:18.227Z,19.02
2023-05-19T23:01:49.058Z,19.03
2023-05-19T23:04:16.136Z,19.00
2023-05-19T23:06:43.097Z,18.79
2023-05-19T23:09:09.943Z,18.74
2023-05-19T23:11:36.903Z,18.77
2023-05-19T23:14:07.185Z,18.56
2023-05-19T23:16:36.190Z,18.46
2023-05-19T23:19:04.052Z,18.41
2023-05-19T23:21:34.065Z,18.42
2023-05-19T23:24:01.175Z,18.26
2023-05-19T23:26:27.958Z,18.12
2023-05-19T23:28:54.811Z,17.98
2023-05-19T23:31:23.704Z,18.07
2023-05-19T23:33:50.810Z,18.12
2023-05-19T23:36:17.872Z,18.07
2023-05-19T23:38:45.861Z,18.04
2023-05-19T23:41:12.862Z,18.05
2023-05-19T23:43:40.768Z,18.04
2023-05-19T23:46:07.853Z,17.99
2023-05-19T23:48:36.663Z,17.92
2023-05-19T23:51:05.879Z,17.91
2023-05-19T23:53:32.795Z,17.86
2023-05-19T23:55:59.792Z,17.73
2023-05-19T23:58:27.846Z,17.64
